Yakima, WA

11:29 AM PDT on August 27, 2014 (GMT -0700)
Hanford | Change Station
CLOSE
Current Station
Airport
Location: Hanford,
Elevation: 732 ft
Nearby Weather Stations

Elev 732 ft 46.57 °N, 119.60 °W | Updated 518 days ago

Clear
Clear
86 °F
Feels Like 86 °F
N
4
Wind Variable Wind from SW
Gusts 5 mph

Today
High -- | Low -- °F
--% Chance of Precip.
Yesterday
High -- | Low -- °F
Precip. -- in
6:15 AM 7:50 PM
Waxing Crescent, 4% visible
Pressure 30.00 in
Visibility 15.0 miles
Clouds Scattered Clouds 10000 ft
Dew Point 53 °F
Humidity 32%
Rainfall 0.00 in
Snow Depth Not available.
UV 5 out of 12
Pollen 4.80 out of 12
Air Quality Not available.
Flu Activity Not available.
METAR KHMS 262050Z 03006KT 15SM SCT100 16/M02 A2999 RMK SLP157 8/070 T01611018 57005 RSNK 07/01006

More Conditions Fewer Conditions

Pressure 30.00 in
Visibility 15.0 miles
Clouds Scattered Clouds 10000 ft
Dew Point 53 °F
Humidity 32%
Rainfall 0.00 in
Snow Depth Not available.
UV 5 out of 12
Pollen 4.80 out of 12
Air Quality Not available.
Flu Activity Not available.
METAR KHMS 262050Z 03006KT 15SM SCT100 16/M02 A2999 RMK SLP157 8/070 T01611018 57005 RSNK 07/01006

More Conditions Fewer Conditions

10-Day Weather Forecast

Almanac

Astronomy

Aug. 27, 2014 Rise Set
Actual Time 6:15 AM PDT 7:50 PM PDT
Civil Twilight 5:43 AM PDT 8:21 PM PDT
Nautical Twilight 5:04 AM PDT 9:00 PM PDT
Astronomical Twilight 4:22 AM PDT 9:41 PM PDT
Moon 8:26 AM PDT 8:33 PM PDT
Length of Visible Light 14h 38m
Length of Day
13h 34m
Tomorrow will be 3m 9s shorter.
Waxing Crescent, 4% of the Moon is Illuminated
Today
Waxing Crescent
Sep 2
First Quarter
Sep 8
Full
Sep 15
Last Quarter
Sep 24
New

Today's Extremes

State Highs State Lows

Community

WunderPhotos

Upload Photos

1,747,750 photos uploaded!

Nearby

Snow Depth

Station Depth Elevation
Lost Horse 0 in 5000 ft
Trough 0 in 5300 ft
Grouse Camp 0 in 5380 ft
Upper Wheeler 0 in 4400 ft
Blewett Pass 0 in 4270 ft

Earthquake Activity

City Distance Mag. Time & Date
No recent earthquake activity has been reported nearby.
Minimum magnitude displayed is 2.5.

Coastal Water Temperatures

Place Temperature
No Stations Reporting

Nearby Weather Stations